Terminal Aerodrome Forecast
Issued by NWS Green Bay, WI

Home | Current Version | Previous Version | Text Only | Print | Product List | Glossary Off
Versions: 1 2 3 4 5 6 7 8 9 10 11 12 13 14 15 16 17

000
FTUS43 KGRB 252331
TAFGRB
TAF
KGRB 252331Z 2600/2624 04009G14KT P6SM FEW050 FEW070
     FM260300 09004KT P6SM FEW080
     FM260900 00000KT 5SM BR FEW090
     FM261000 00000KT 1 1/2SM BR FEW050 BKN090
     FM261300 VRB03KT P6SM SCT050 BKN070
     FM261700 14006KT P6SM BKN050
     FM262100 17007KT P6SM VCSH BKN040=

USA.gov is the U.S. government's official web portal to all federal, state and local government web resources and services.